createdAt,value
2024-02-28T00:01:34.176Z,16.72
2024-02-28T00:04:00.682Z,16.45
2024-02-28T00:06:27.194Z,15.77
2024-02-28T00:08:53.660Z,15.81
2024-02-28T00:11:20.104Z,16.39
2024-02-28T00:13:46.575Z,16.97
2024-02-28T00:16:13.049Z,16.26
2024-02-28T00:18:39.574Z,16.54
2024-02-28T00:21:06.070Z,17.11
2024-02-28T00:23:32.532Z,17.00
2024-02-28T00:25:58.965Z,16.66
2024-02-28T00:28:25.429Z,17.29
2024-02-28T00:30:51.913Z,16.66
2024-02-28T00:33:18.415Z,16.34
2024-02-28T00:35:44.885Z,15.65
2024-02-28T00:38:11.319Z,16.21
2024-02-28T00:40:37.767Z,15.71
2024-02-28T00:43:04.252Z,15.33
2024-02-28T00:45:30.841Z,15.35
2024-02-28T00:47:57.534Z,15.13
2024-02-28T00:50:24.119Z,15.44
2024-02-28T00:52:50.605Z,14.79
2024-02-28T00:55:17.117Z,15.17
2024-02-28T00:57:43.872Z,15.60
2024-02-28T01:00:10.468Z,15.85
2024-02-28T01:02:36.962Z,15.47
2024-02-28T01:05:03.509Z,15.87
2024-02-28T01:07:30.008Z,15.99
2024-02-28T01:09:56.519Z,15.51
2024-02-28T01:12:23.090Z,15.75
2024-02-28T01:14:49.710Z,15.95
2024-02-28T01:17:16.282Z,16.02
2024-02-28T01:19:42.798Z,16.42
2024-02-28T01:22:09.264Z,16.76
2024-02-28T01:24:35.943Z,16.40
2024-02-28T01:27:02.463Z,16.77
2024-02-28T01:29:28.898Z,17.20
2024-02-28T01:31:55.404Z,16.84
2024-02-28T01:34:21.885Z,16.82
2024-02-28T01:36:48.481Z,17.29
2024-02-28T01:39:14.982Z,17.52
2024-02-28T01:41:41.444Z,17.66
2024-02-28T01:44:07.904Z,17.31
2024-02-28T01:46:34.364Z,17.76
2024-02-28T01:49:00.880Z,18.11
2024-02-28T01:51:27.355Z,18.28
2024-02-28T01:53:53.945Z,18.42
2024-02-28T01:56:20.412Z,18.66
2024-02-28T01:58:46.947Z,18.07
2024-02-28T02:01:13.539Z,18.20
2024-02-28T02:03:40.123Z,17.99
2024-02-28T02:06:06.603Z,18.14
2024-02-28T02:08:33.287Z,18.29
2024-02-28T02:10:59.837Z,17.98
2024-02-28T02:13:26.295Z,18.35
2024-02-28T02:15:52.789Z,18.18
2024-02-28T02:18:19.373Z,18.71
2024-02-28T02:20:45.903Z,18.57
2024-02-28T02:23:12.383Z,18.62
2024-02-28T02:25:38.845Z,18.73
2024-02-28T02:28:05.313Z,18.48
2024-02-28T02:30:31.879Z,18.27
2024-02-28T02:32:58.447Z,18.46
2024-02-28T02:35:24.933Z,18.63
2024-02-28T02:37:51.589Z,18.65
2024-02-28T02:40:18.083Z,18.04
2024-02-28T02:42:44.799Z,18.72
2024-02-28T02:45:11.318Z,19.13
2024-02-28T02:47:38.013Z,18.98
2024-02-28T02:50:04.480Z,19.57
2024-02-28T02:52:30.925Z,19.21
2024-02-28T02:54:57.449Z,19.35
2024-02-28T02:57:23.958Z,18.20
2024-02-28T02:59:50.455Z,18.70
2024-02-28T03:02:16.926Z,18.92
2024-02-28T03:04:43.392Z,18.76
2024-02-28T03:07:09.984Z,19.07
2024-02-28T03:09:36.521Z,18.78
2024-02-28T03:12:03.036Z,18.48
2024-02-28T03:14:29.514Z,18.12
2024-02-28T03:16:56.016Z,18.45
2024-02-28T03:19:22.479Z,17.76
2024-02-28T03:21:49.084Z,17.43
2024-02-28T03:24:16.912Z,17.29
2024-02-28T03:26:43.415Z,16.83
2024-02-28T03:29:10.059Z,16.95
2024-02-28T03:31:36.515Z,16.86
2024-02-28T03:34:03.049Z,16.62
2024-02-28T03:36:29.624Z,16.95
2024-02-28T03:38:56.135Z,17.07
2024-02-28T03:41:22.651Z,16.81
2024-02-28T03:43:49.190Z,17.11
2024-02-28T03:46:15.704Z,16.44
2024-02-28T03:48:42.278Z,16.83
2024-02-28T03:51:08.766Z,16.43
2024-02-28T03:53:35.262Z,16.67
2024-02-28T03:56:01.767Z,16.70
2024-02-28T03:58:28.261Z,17.17
2024-02-28T04:00:54.781Z,16.78
2024-02-28T04:03:21.321Z,16.41
2024-02-28T04:05:47.772Z,16.81
2024-02-28T04:08:14.308Z,16.43
2024-02-28T04:10:40.895Z,16.41
2024-02-28T04:13:07.452Z,16.52
2024-02-28T04:15:34.067Z,16.69
2024-02-28T04:18:00.821Z,17.10
2024-02-28T04:20:27.282Z,16.93
2024-02-28T04:22:53.775Z,16.77
2024-02-28T04:25:20.234Z,16.85
2024-02-28T04:27:46.782Z,17.59
2024-02-28T04:30:13.360Z,17.18
2024-02-28T04:32:39.993Z,16.50
2024-02-28T04:35:06.487Z,17.01
2024-02-28T04:37:32.928Z,16.84
2024-02-28T04:39:59.416Z,16.80
2024-02-28T04:42:26.061Z,17.20
2024-02-28T04:44:52.568Z,17.13
2024-02-28T04:47:23.586Z,16.67
2024-02-28T04:49:53.693Z,18.59
2024-02-28T04:52:24.500Z,16.90
2024-02-28T04:54:51.244Z,17.94
2024-02-28T04:57:17.840Z,17.16
2024-02-28T04:59:44.326Z,17.24
2024-02-28T05:02:10.822Z,17.40
2024-02-28T05:04:37.285Z,17.12
2024-02-28T05:07:03.820Z,17.35
2024-02-28T05:09:30.410Z,16.97
2024-02-28T05:11:56.896Z,16.78
2024-02-28T05:14:23.340Z,17.16
2024-02-28T05:16:49.811Z,16.68
2024-02-28T05:19:16.266Z,16.86
2024-02-28T05:21:42.828Z,16.55
2024-02-28T05:24:09.332Z,16.81
2024-02-28T05:26:35.795Z,16.71
2024-02-28T05:29:02.266Z,15.69
2024-02-28T05:31:28.724Z,16.29
2024-02-28T05:33:55.308Z,16.63
2024-02-28T05:36:21.867Z,16.82
2024-02-28T05:38:48.389Z,16.09
2024-02-28T05:41:14.934Z,16.59
2024-02-28T05:43:41.391Z,17.17
2024-02-28T05:46:07.897Z,17.53
2024-02-28T05:48:34.521Z,17.28
2024-02-28T05:51:01.018Z,16.97
2024-02-28T05:53:27.512Z,17.01
2024-02-28T05:55:53.972Z,17.10
2024-02-28T05:58:20.453Z,17.80
2024-02-28T06:00:46.962Z,17.52
2024-02-28T06:03:13.446Z,17.46
2024-02-28T06:05:42.463Z,17.60
2024-02-28T06:08:10.113Z,17.27
2024-02-28T06:10:36.590Z,17.36
2024-02-28T06:13:03.095Z,17.62
2024-02-28T06:15:29.660Z,17.77
2024-02-28T06:17:56.158Z,17.81
2024-02-28T06:20:22.669Z,17.73
2024-02-28T06:22:49.180Z,17.63
2024-02-28T06:25:15.630Z,17.91
2024-02-28T06:27:42.129Z,17.84
2024-02-28T06:30:08.596Z,18.23
2024-02-28T06:32:35.067Z,17.58
2024-02-28T06:35:01.637Z,17.82
2024-02-28T06:37:28.110Z,17.97
2024-02-28T06:39:54.630Z,18.01
2024-02-28T06:42:21.211Z,17.74
2024-02-28T06:44:47.653Z,17.75
2024-02-28T06:47:14.109Z,17.97
2024-02-28T06:49:40.611Z,18.32
2024-02-28T06:52:07.153Z,17.70
2024-02-28T06:54:33.738Z,17.95
2024-02-28T06:57:00.281Z,18.45
2024-02-28T06:59:26.792Z,17.60
2024-02-28T07:01:53.299Z,17.75
2024-02-28T07:04:19.818Z,17.65
2024-02-28T07:06:46.340Z,17.02
2024-02-28T07:09:12.836Z,17.58
2024-02-28T07:11:39.281Z,17.69
2024-02-28T07:14:05.724Z,17.64
2024-02-28T07:16:32.185Z,18.03
2024-02-28T07:18:59.069Z,17.65
2024-02-28T07:21:25.564Z,17.67
2024-02-28T07:23:52.048Z,17.45
2024-02-28T07:26:26.486Z,18.17
2024-02-28T07:28:53.989Z,17.44
2024-02-28T07:31:20.560Z,16.87
2024-02-28T07:33:47.061Z,17.26
2024-02-28T07:36:13.541Z,17.05
2024-02-28T07:38:40.057Z,17.15
2024-02-28T07:41:06.550Z,16.88
2024-02-28T07:43:33.042Z,16.58
2024-02-28T07:45:59.501Z,16.89
2024-02-28T07:48:26.287Z,16.55
2024-02-28T07:50:52.857Z,16.88
2024-02-28T07:53:19.542Z,16.74
2024-02-28T07:55:46.222Z,17.16
2024-02-28T07:58:12.742Z,17.51
2024-02-28T08:00:39.423Z,16.78
2024-02-28T08:03:06.121Z,16.20
2024-02-28T08:05:32.744Z,16.88
2024-02-28T08:07:59.271Z,16.39
2024-02-28T08:10:25.772Z,16.93
2024-02-28T08:12:52.488Z,16.78
2024-02-28T08:15:19.166Z,16.85
2024-02-28T08:17:45.701Z,16.34
2024-02-28T08:20:12.317Z,15.84
2024-02-28T08:22:39.060Z,16.22
2024-02-28T08:25:05.551Z,15.66
2024-02-28T08:27:33.208Z,16.20
2024-02-28T08:29:59.880Z,15.44
2024-02-28T08:32:26.353Z,16.06
2024-02-28T08:34:52.841Z,15.85
2024-02-28T08:37:19.389Z,15.76
2024-02-28T08:39:45.907Z,16.51
2024-02-28T08:42:12.425Z,18.32
2024-02-28T08:44:38.906Z,17.42
2024-02-28T08:47:05.404Z,17.67
2024-02-28T08:49:31.945Z,16.48
2024-02-28T08:51:58.491Z,15.47
2024-02-28T08:54:25.119Z,15.96
2024-02-28T08:56:56.761Z,16.12
2024-02-28T08:59:26.921Z,16.20
2024-02-28T09:01:53.416Z,15.86
2024-02-28T09:04:19.909Z,16.18
2024-02-28T09:06:46.404Z,15.26
2024-02-28T09:09:13.000Z,15.44
2024-02-28T09:11:39.543Z,14.92
2024-02-28T09:14:05.987Z,15.53
2024-02-28T09:16:32.610Z,15.03
2024-02-28T09:18:59.156Z,15.21
2024-02-28T09:21:25.706Z,14.82
2024-02-28T09:23:52.186Z,14.88
2024-02-28T09:26:18.629Z,15.36
2024-02-28T09:28:45.092Z,14.86
2024-02-28T09:31:11.624Z,14.67
2024-02-28T09:33:38.250Z,15.13
2024-02-28T09:36:04.738Z,14.87
2024-02-28T09:38:31.236Z,15.24
2024-02-28T09:40:57.693Z,14.79
2024-02-28T09:43:24.273Z,15.12
2024-02-28T09:45:50.856Z,14.97
2024-02-28T09:48:17.827Z,15.61
2024-02-28T09:50:44.493Z,14.76
2024-02-28T09:53:11.491Z,14.65
2024-02-28T09:55:38.303Z,14.76
2024-02-28T09:58:05.071Z,15.03
2024-02-28T10:00:31.675Z,14.83
2024-02-28T10:02:58.128Z,14.98
2024-02-28T10:05:24.606Z,15.10
2024-02-28T10:07:51.090Z,15.42
2024-02-28T10:10:17.550Z,15.21
2024-02-28T10:12:44.087Z,15.42
2024-02-28T10:15:10.556Z,14.25
2024-02-28T10:17:37.038Z,14.93
2024-02-28T10:20:03.633Z,15.13
2024-02-28T10:22:30.115Z,14.56
2024-02-28T10:24:56.626Z,14.90
2024-02-28T10:27:23.154Z,14.62
2024-02-28T10:29:49.703Z,14.96
2024-02-28T10:32:16.136Z,14.81
2024-02-28T10:34:42.687Z,14.85
2024-02-28T10:37:09.152Z,14.96
2024-02-28T10:39:35.738Z,14.78
2024-02-28T10:42:02.382Z,14.86
2024-02-28T10:44:28.972Z,15.45
2024-02-28T10:46:55.471Z,15.07
2024-02-28T10:49:21.959Z,15.19
2024-02-28T10:51:48.499Z,16.69
2024-02-28T10:54:15.550Z,15.05
2024-02-28T10:56:42.697Z,15.03
2024-02-28T10:59:11.654Z,15.33
2024-02-28T11:01:38.777Z,15.86
2024-02-28T11:04:05.391Z,15.76
2024-02-28T11:06:32.018Z,15.65
2024-02-28T11:08:58.558Z,15.17
2024-02-28T11:11:25.175Z,15.05
2024-02-28T11:13:51.683Z,14.60
2024-02-28T11:16:18.174Z,15.20
2024-02-28T11:18:44.893Z,16.36
2024-02-28T11:21:12.693Z,15.52
2024-02-28T11:23:39.336Z,15.73
2024-02-28T11:26:05.917Z,14.70
2024-02-28T11:28:32.450Z,14.52
2024-02-28T11:30:58.977Z,14.63
2024-02-28T11:33:25.590Z,14.95
2024-02-28T11:35:52.158Z,15.25
2024-02-28T11:38:18.600Z,14.62
2024-02-28T11:40:45.226Z,14.66
2024-02-28T11:43:11.787Z,14.85
2024-02-28T11:45:38.315Z,14.51
2024-02-28T11:48:04.858Z,14.82
2024-02-28T11:50:31.413Z,14.55
2024-02-28T11:52:57.933Z,14.91
2024-02-28T11:55:24.378Z,14.89
2024-02-28T11:57:51.051Z,15.16
2024-02-28T12:00:17.543Z,14.53
2024-02-28T12:02:44.033Z,14.58
2024-02-28T12:05:10.625Z,15.16
2024-02-28T12:07:37.104Z,14.73
2024-02-28T12:10:03.687Z,14.81
2024-02-28T12:12:30.202Z,14.85
2024-02-28T12:14:56.709Z,15.03
2024-02-28T12:17:23.249Z,14.58
2024-02-28T12:19:51.908Z,14.63
2024-02-28T12:22:19.843Z,14.47
2024-02-28T12:24:46.409Z,14.48
2024-02-28T12:27:12.893Z,13.87
2024-02-28T12:29:39.366Z,14.25
2024-02-28T12:32:05.809Z,14.62
2024-02-28T12:34:32.466Z,13.99
2024-02-28T12:36:59.012Z,14.69
2024-02-28T12:39:25.484Z,14.98
2024-02-28T12:41:52.087Z,14.58
2024-02-28T12:44:18.644Z,14.69
2024-02-28T12:46:45.268Z,14.72
2024-02-28T12:49:11.830Z,14.93
2024-02-28T12:51:38.538Z,14.46
2024-02-28T12:54:05.061Z,14.75
2024-02-28T12:56:31.543Z,14.53
2024-02-28T12:58:58.027Z,14.65
2024-02-28T13:01:24.621Z,14.37
2024-02-28T13:03:51.124Z,15.29
2024-02-28T13:06:17.620Z,14.21
2024-02-28T13:08:44.090Z,14.17
2024-02-28T13:11:10.530Z,13.91
2024-02-28T13:13:37.015Z,13.73
2024-02-28T13:16:03.510Z,13.94
2024-02-28T13:18:30.158Z,13.80
2024-02-28T13:20:56.689Z,13.77
2024-02-28T13:23:23.179Z,13.63
2024-02-28T13:25:49.656Z,13.46
2024-02-28T13:28:16.114Z,12.51
2024-02-28T13:30:42.638Z,12.00
2024-02-28T13:33:09.200Z,12.80
2024-02-28T13:35:35.730Z,12.04
2024-02-28T13:38:02.180Z,12.28
2024-02-28T13:40:28.799Z,12.10
2024-02-28T13:42:55.350Z,12.47
2024-02-28T13:45:21.963Z,12.50
2024-02-28T13:47:48.455Z,12.80
2024-02-28T13:50:14.989Z,12.42
2024-02-28T13:52:41.491Z,12.65
2024-02-28T13:55:08.327Z,12.82
2024-02-28T13:57:34.894Z,12.72
2024-02-28T14:00:01.571Z,12.78
2024-02-28T14:02:28.332Z,12.92
2024-02-28T14:04:54.924Z,12.51
2024-02-28T14:07:21.373Z,12.63
2024-02-28T14:09:48.018Z,12.46
2024-02-28T14:12:14.525Z,11.95
2024-02-28T14:14:41.068Z,11.40
2024-02-28T14:17:07.578Z,11.43
2024-02-28T14:19:34.060Z,11.34
2024-02-28T14:22:00.588Z,11.34
2024-02-28T14:24:27.177Z,12.09
2024-02-28T14:26:53.696Z,12.09
2024-02-28T14:29:20.239Z,11.99
2024-02-28T14:31:46.669Z,11.95
2024-02-28T14:34:13.225Z,12.00
2024-02-28T14:36:39.699Z,12.25
2024-02-28T14:39:06.184Z,11.98
2024-02-28T14:41:32.610Z,11.87
2024-02-28T14:43:59.099Z,12.29
2024-02-28T14:46:25.548Z,12.91
2024-02-28T14:48:52.037Z,12.18
2024-02-28T14:51:18.508Z,12.08
2024-02-28T14:53:44.964Z,11.47
2024-02-28T14:56:11.486Z,11.36
2024-02-28T14:58:37.989Z,11.07
2024-02-28T15:01:04.547Z,11.31
2024-02-28T15:03:31.028Z,10.95
2024-02-28T15:05:57.480Z,10.53
2024-02-28T15:08:23.955Z,10.77
2024-02-28T15:10:50.442Z,10.39
2024-02-28T15:13:16.943Z,10.78
2024-02-28T15:15:43.690Z,11.12
2024-02-28T15:18:10.334Z,10.89
2024-02-28T15:20:36.793Z,11.13
2024-02-28T15:23:03.273Z,11.42
2024-02-28T15:25:29.711Z,11.04
2024-02-28T15:27:56.188Z,11.88
2024-02-28T15:30:22.631Z,11.31
2024-02-28T15:32:49.233Z,11.41
2024-02-28T15:35:15.891Z,12.11
2024-02-28T15:37:42.412Z,11.61
2024-02-28T15:40:08.909Z,12.11
2024-02-28T15:42:35.576Z,11.85
2024-02-28T15:45:02.112Z,11.65
2024-02-28T15:47:30.183Z,11.96
2024-02-28T15:49:58.077Z,12.64
2024-02-28T15:52:24.550Z,11.93
2024-02-28T15:54:51.022Z,12.22
2024-02-28T15:57:17.530Z,11.94
2024-02-28T15:59:43.967Z,12.01
2024-02-28T16:02:10.459Z,12.40
2024-02-28T16:04:36.888Z,12.27
2024-02-28T16:07:03.403Z,12.22
2024-02-28T16:09:29.904Z,11.81
2024-02-28T16:11:56.356Z,12.58
2024-02-28T16:14:22.849Z,11.65
2024-02-28T16:16:49.337Z,12.07
2024-02-28T16:19:22.549Z,11.88
2024-02-28T16:21:53.381Z,12.21
2024-02-28T16:24:19.944Z,12.36
2024-02-28T16:26:46.437Z,12.96
2024-02-28T16:29:13.014Z,13.08
2024-02-28T16:31:39.474Z,12.85
2024-02-28T16:34:06.050Z,13.22
2024-02-28T16:36:32.702Z,12.94
2024-02-28T16:38:59.378Z,13.40
2024-02-28T16:41:25.911Z,13.27
2024-02-28T16:43:52.411Z,13.16
2024-02-28T16:46:18.923Z,13.23
2024-02-28T16:48:45.505Z,13.56
2024-02-28T16:51:11.978Z,13.65
2024-02-28T16:53:38.427Z,13.83
2024-02-28T16:56:04.991Z,14.08
2024-02-28T16:58:31.513Z,13.61
2024-02-28T17:00:58.206Z,13.79
2024-02-28T17:03:24.813Z,14.26
2024-02-28T17:05:51.259Z,14.08
2024-02-28T17:08:17.800Z,14.35
2024-02-28T17:10:44.297Z,14.23
2024-02-28T17:13:13.887Z,13.79
2024-02-28T17:15:40.868Z,13.90
2024-02-28T17:18:07.439Z,13.64
2024-02-28T17:20:33.960Z,13.62
2024-02-28T17:23:00.424Z,13.56
2024-02-28T17:25:26.956Z,13.87
2024-02-28T17:27:53.530Z,13.86
2024-02-28T17:30:20.174Z,14.57
2024-02-28T17:32:46.670Z,14.98
2024-02-28T17:35:13.213Z,15.17
2024-02-28T17:37:39.652Z,15.47
2024-02-28T17:40:06.100Z,15.70
2024-02-28T17:42:32.658Z,15.54
2024-02-28T17:44:59.262Z,14.72
2024-02-28T17:47:25.721Z,14.38
2024-02-28T17:49:52.182Z,14.89
2024-02-28T17:52:18.792Z,14.58
2024-02-28T17:54:45.284Z,14.13
2024-02-28T17:57:11.798Z,14.53
2024-02-28T17:59:38.264Z,14.66
2024-02-28T18:02:04.708Z,14.73
2024-02-28T18:04:31.148Z,15.00
2024-02-28T18:06:57.750Z,20.58
2024-02-28T18:09:25.640Z,15.40
2024-02-28T18:11:53.369Z,14.19
2024-02-28T18:14:19.880Z,14.32
2024-02-28T18:16:46.380Z,14.05
2024-02-28T18:19:12.889Z,14.23
2024-02-28T18:21:39.407Z,14.19
2024-02-28T18:24:05.884Z,13.30
2024-02-28T18:26:32.324Z,13.19
2024-02-28T18:28:58.766Z,13.75
2024-02-28T18:31:25.246Z,13.61
2024-02-28T18:33:51.780Z,13.39
2024-02-28T18:36:18.262Z,13.11
2024-02-28T18:38:44.709Z,12.94
2024-02-28T18:41:11.160Z,13.30
2024-02-28T18:43:37.624Z,13.99
2024-02-28T18:46:04.200Z,12.91
2024-02-28T18:48:30.787Z,13.01
2024-02-28T18:50:57.375Z,13.22
2024-02-28T18:53:23.839Z,13.35
2024-02-28T18:55:50.345Z,12.97
2024-02-28T18:58:16.793Z,13.11
2024-02-28T19:00:43.368Z,14.19
2024-02-28T19:03:09.843Z,14.25
2024-02-28T19:05:36.401Z,14.28
2024-02-28T19:08:02.918Z,14.15
2024-02-28T19:10:29.387Z,14.33
2024-02-28T19:12:55.898Z,13.79
2024-02-28T19:15:22.495Z,13.24
2024-02-28T19:17:49.024Z,13.58
2024-02-28T19:20:15.603Z,13.55
2024-02-28T19:22:42.073Z,14.34
2024-02-28T19:25:08.724Z,14.83
2024-02-28T19:27:35.279Z,14.48
2024-02-28T19:30:01.844Z,14.40
2024-02-28T19:32:28.385Z,14.75
2024-02-28T19:34:54.898Z,14.39
2024-02-28T19:37:21.491Z,13.67
2024-02-28T19:39:48.066Z,14.26
2024-02-28T19:42:14.567Z,14.44
2024-02-28T19:44:41.076Z,15.22
2024-02-28T19:47:10.379Z,14.59
2024-02-28T19:49:36.848Z,14.31
2024-02-28T19:52:03.443Z,13.95
2024-02-28T19:54:29.954Z,14.99
2024-02-28T19:56:56.564Z,15.15
2024-02-28T19:59:23.097Z,15.47
2024-02-28T20:01:49.752Z,15.45
2024-02-28T20:04:16.398Z,16.18
2024-02-28T20:06:43.348Z,15.78
2024-02-28T20:09:09.983Z,14.68
2024-02-28T20:11:36.819Z,15.68
2024-02-28T20:14:03.333Z,16.12
2024-02-28T20:16:29.806Z,16.00
2024-02-28T20:18:56.324Z,15.90
2024-02-28T20:21:28.020Z,16.50
2024-02-28T20:23:57.520Z,15.91
2024-02-28T20:26:24.014Z,16.74
2024-02-28T20:28:50.477Z,16.32
2024-02-28T20:31:17.106Z,16.63
2024-02-28T20:33:43.569Z,16.63
2024-02-28T20:36:10.027Z,16.51
2024-02-28T20:38:36.606Z,16.65
2024-02-28T20:41:03.218Z,17.84
2024-02-28T20:43:29.659Z,18.29
2024-02-28T20:45:56.175Z,16.97
2024-02-28T20:48:22.758Z,16.74
2024-02-28T20:50:49.313Z,17.21
2024-02-28T20:53:15.941Z,17.08
2024-02-28T20:55:42.456Z,17.11
2024-02-28T20:58:08.987Z,16.85
2024-02-28T21:00:35.555Z,17.77
2024-02-28T21:03:02.064Z,17.49
2024-02-28T21:05:28.556Z,17.14
2024-02-28T21:07:55.201Z,18.06
2024-02-28T21:10:21.959Z,17.35
2024-02-28T21:12:48.475Z,17.05
2024-02-28T21:15:15.037Z,18.02
2024-02-28T21:17:41.529Z,17.71
2024-02-28T21:20:08.129Z,17.05
2024-02-28T21:22:34.751Z,17.37
2024-02-28T21:25:01.508Z,17.27
2024-02-28T21:27:28.167Z,18.30
2024-02-28T21:29:54.836Z,18.18
2024-02-28T21:32:21.331Z,18.16
2024-02-28T21:34:48.157Z,17.40
2024-02-28T21:37:14.778Z,18.25
2024-02-28T21:39:41.282Z,18.20
2024-02-28T21:42:07.750Z,18.24
2024-02-28T21:44:34.365Z,18.28
2024-02-28T21:47:00.887Z,18.41
2024-02-28T21:49:27.405Z,18.66
2024-02-28T21:51:54.012Z,18.04
2024-02-28T21:54:20.709Z,18.54
2024-02-28T21:56:47.161Z,18.97
2024-02-28T21:59:13.690Z,18.22
2024-02-28T22:01:40.231Z,18.58
2024-02-28T22:04:06.845Z,18.98
2024-02-28T22:06:33.501Z,19.34
2024-02-28T22:09:00.061Z,19.24
2024-02-28T22:11:26.678Z,18.54
2024-02-28T22:13:53.155Z,19.10
2024-02-28T22:16:19.634Z,19.35
2024-02-28T22:18:46.251Z,19.11
2024-02-28T22:21:12.859Z,19.56
2024-02-28T22:23:39.301Z,19.18
2024-02-28T22:26:05.770Z,19.29
2024-02-28T22:28:32.210Z,19.28
2024-02-28T22:30:58.762Z,19.26
2024-02-28T22:33:25.240Z,19.64
2024-02-28T22:35:51.695Z,19.55
2024-02-28T22:38:18.146Z,19.16
2024-02-28T22:40:44.611Z,19.34
2024-02-28T22:43:11.130Z,20.13
2024-02-28T22:45:37.706Z,19.38
2024-02-28T22:48:04.213Z,19.83
2024-02-28T22:50:30.729Z,20.01
2024-02-28T22:52:57.185Z,19.83
2024-02-28T22:55:23.806Z,20.45
2024-02-28T22:57:50.273Z,20.41
2024-02-28T23:00:16.806Z,19.59
2024-02-28T23:02:43.298Z,20.49
2024-02-28T23:05:09.746Z,20.11
2024-02-28T23:07:36.274Z,20.61
2024-02-28T23:10:02.806Z,20.86
2024-02-28T23:12:29.311Z,20.34
2024-02-28T23:14:55.883Z,20.27
2024-02-28T23:17:22.420Z,19.94
2024-02-28T23:19:50.327Z,19.23
2024-02-28T23:22:16.981Z,19.56
2024-02-28T23:24:43.517Z,20.21
2024-02-28T23:27:10.075Z,20.51
2024-02-28T23:29:36.568Z,20.46
2024-02-28T23:32:03.019Z,20.32
2024-02-28T23:34:29.533Z,20.18
2024-02-28T23:36:56.006Z,20.13
2024-02-28T23:39:22.486Z,20.09
2024-02-28T23:41:48.936Z,20.43
2024-02-28T23:44:15.413Z,20.75
2024-02-28T23:46:41.860Z,20.70
2024-02-28T23:49:08.373Z,20.61
2024-02-28T23:51:34.979Z,20.09
2024-02-28T23:54:01.470Z,20.59
2024-02-28T23:56:27.920Z,20.16
2024-02-28T23:58:54.366Z,20.40
